Check out our new BloomSky Weather System.

Active alerts


No alerts


Thunder radar  blitzortung!


Rain radar more information rain snow radar


Visit our other weather sites:

Template documentation
and downloads

And another site



Weather Underground History page Text

Daily Summary for October 12, 2017 Units:  English    Metric   Both
« Previous Day
Next Day »
Daily Weekly Monthly Yearly Custom
  High: Low: Average:
Temperature: 91.2 °F 63.3 °F 77.1 °F
Dew Point: 74.1 °F 59.7 °F 67.5 °F
Humidity: 90 % 54 % 74 %
Wind Speed: 6.0 mph 0.0 mph 0.7 mph
Wind Gust: 14.0 mph - -
Wind:- - SSE
Pressure: 30.09 in 29.96 in -
Precipitation: 0.00 in    
Historical Graphs
 
 
Tabular Data for October 12, 2017
Time Temperature Dew Point Pressure Wind Wind Speed Wind Gust Humidity Rainfall Rate (Hourly)
00:01 66.6 °F 60.3 °F 30.07 in Calm     80 % 0.00 in
00:06 66.6 °F 60.3 °F 30.07 in Calm     80 % 0.00 in
00:11 66.7 °F 60.4 °F 30.06 in Calm     80 % 0.00 in
00:16 66.7 °F 60.4 °F 30.06 in Calm   1.0 mph 80 % 0.00 in
00:21 66.7 °F 60.1 °F 30.06 in Calm   1.0 mph 79 % 0.00 in
00:26 66.6 °F 59.9 °F 30.06 in Calm   1.0 mph 79 % 0.00 in
00:31 66.4 °F 59.7 °F 30.06 in Calm     79 % 0.00 in
00:36 66.2 °F 60.3 °F 30.06 in Calm     81 % 0.00 in
00:41 66.0 °F 59.7 °F 30.06 in Calm     80 % 0.00 in
00:46 65.8 °F 59.9 °F 30.06 in Calm     81 % 0.00 in
00:51 65.7 °F 59.7 °F 30.06 in Calm     81 % 0.00 in
00:56 65.7 °F 60.1 °F 30.06 in Calm     82 % 0.00 in
01:01 65.7 °F 60.1 °F 30.06 in Calm     82 % 0.00 in
01:06 65.7 °F 59.7 °F 30.06 in Calm     81 % 0.00 in
01:11 65.7 °F 60.1 °F 30.06 in Calm     82 % 0.00 in
01:17 65.7 °F 60.1 °F 30.06 in Calm     82 % 0.00 in
01:22 65.7 °F 60.4 °F 30.06 in Calm     83 % 0.00 in
01:27 65.5 °F 60.3 °F 30.06 in Calm     83 % 0.00 in
01:37 65.1 °F 60.1 °F 30.05 in Calm     84 % 0.00 in
01:42 64.9 °F 59.9 °F 30.06 in Calm     84 % 0.00 in
01:47 64.8 °F 59.9 °F 30.06 in Calm     84 % 0.00 in
01:52 64.8 °F 59.9 °F 30.06 in Calm     84 % 0.00 in
01:57 64.8 °F 60.1 °F 30.06 in Calm     85 % 0.00 in
02:02 64.9 °F 60.3 °F 30.06 in Calm     85 % 0.00 in
02:07 64.9 °F 60.3 °F 30.05 in Calm     85 % 0.00 in
02:12 65.1 °F 60.1 °F 30.05 in Calm     84 % 0.00 in
02:17 65.3 °F 60.3 °F 30.05 in Calm     84 % 0.00 in
02:22 65.1 °F 60.1 °F 30.05 in Calm     84 % 0.00 in
02:27 64.9 °F 59.9 °F 30.05 in Calm     84 % 0.00 in
02:32 64.9 °F 60.3 °F 30.05 in Calm     85 % 0.00 in
02:37 64.9 °F 60.3 °F 30.05 in Calm     85 % 0.00 in
02:42 64.8 °F 60.1 °F 30.05 in Calm     85 % 0.00 in
02:47 64.8 °F 60.4 °F 30.05 in Calm     86 % 0.00 in
02:52 64.8 °F 60.4 °F 30.05 in Calm     86 % 0.00 in
02:57 64.9 °F 60.3 °F 30.04 in Calm   1.0 mph 85 % 0.00 in
03:02 64.9 °F 60.3 °F 30.04 in Calm   1.0 mph 85 % 0.00 in
03:07 64.9 °F 60.3 °F 30.04 in NNW 1.0 mph 1.0 mph 85 % 0.00 in
03:12 65.1 °F 60.4 °F 30.04 in Calm   1.0 mph 85 % 0.00 in
03:17 65.1 °F 60.4 °F 30.04 in Calm   1.0 mph 85 % 0.00 in
03:22 65.1 °F 60.4 °F 30.04 in Calm   1.0 mph 85 % 0.00 in
03:27 65.1 °F 60.4 °F 30.04 in Calm   1.0 mph 85 % 0.00 in
03:32 65.1 °F 60.4 °F 30.04 in Calm   1.0 mph 85 % 0.00 in
03:37 64.9 °F 60.3 °F 30.04 in Calm   1.0 mph 85 % 0.00 in
03:42 64.8 °F 60.4 °F 30.04 in Calm   1.0 mph 86 % 0.00 in
03:47 64.8 °F 60.4 °F 30.04 in Calm     86 % 0.00 in
03:52 64.6 °F 60.3 °F 30.04 in Calm     86 % 0.00 in
03:57 64.8 °F 60.4 °F 30.04 in Calm     86 % 0.00 in
04:02 64.8 °F 60.4 °F 30.04 in Calm   1.0 mph 86 % 0.00 in
04:07 64.8 °F 60.4 °F 30.04 in Calm   1.0 mph 86 % 0.00 in
04:17 64.8 °F 60.4 °F 30.04 in Calm   1.0 mph 86 % 0.00 in
04:22 64.8 °F 60.4 °F 30.04 in Calm   1.0 mph 86 % 0.00 in
04:27 64.6 °F 60.3 °F 30.04 in Calm   1.0 mph 86 % 0.00 in
04:32 64.4 °F 60.1 °F 30.04 in Calm   1.0 mph 86 % 0.00 in
04:37 64.2 °F 59.9 °F 30.04 in Calm     86 % 0.00 in
04:42 64.0 °F 60.1 °F 30.04 in Calm     87 % 0.00 in
04:47 63.9 °F 59.9 °F 30.04 in Calm     87 % 0.00 in
04:52 63.7 °F 60.1 °F 30.04 in Calm     88 % 0.00 in
04:57 63.3 °F 59.7 °F 30.04 in Calm     88 % 0.00 in
05:02 63.3 °F 60.1 °F 30.04 in Calm     89 % 0.00 in
05:07 63.3 °F 60.1 °F 30.04 in Calm     89 % 0.00 in
05:12 63.7 °F 60.4 °F 30.05 in Calm     89 % 0.00 in
05:17 63.7 °F 60.4 °F 30.05 in Calm     89 % 0.00 in
05:22 63.9 °F 60.6 °F 30.05 in Calm     89 % 0.00 in
05:27 63.7 °F 60.4 °F 30.05 in Calm     89 % 0.00 in
05:32 63.7 °F 60.4 °F 30.05 in Calm     89 % 0.00 in
05:37 63.9 °F 60.8 °F 30.05 in Calm   1.0 mph 90 % 0.00 in
05:42 63.9 °F 60.6 °F 30.05 in Calm   1.0 mph 89 % 0.00 in
05:47 63.9 °F 60.6 °F 30.05 in Calm   1.0 mph 89 % 0.00 in
05:52 63.9 °F 60.6 °F 30.04 in Calm   1.0 mph 89 % 0.00 in
05:57 63.9 °F 60.8 °F 30.05 in Calm   1.0 mph 90 % 0.00 in
06:02 63.9 °F 60.8 °F 30.05 in Calm   1.0 mph 90 % 0.00 in
06:07 63.9 °F 60.8 °F 30.05 in Calm   1.0 mph 90 % 0.00 in
06:12 63.9 °F 60.8 °F 30.05 in Calm   1.0 mph 90 % 0.00 in
06:17 63.9 °F 60.8 °F 30.05 in Calm     90 % 0.00 in
06:22 63.9 °F 60.6 °F 30.05 in Calm     89 % 0.00 in
06:27 64.0 °F 60.8 °F 30.05 in Calm   1.0 mph 89 % 0.00 in
06:32 63.9 °F 60.6 °F 30.05 in Calm   1.0 mph 89 % 0.00 in
06:37 63.7 °F 60.4 °F 30.05 in Calm   1.0 mph 89 % 0.00 in
06:42 63.9 °F 60.6 °F 30.05 in Calm   1.0 mph 89 % 0.00 in
06:52 64.0 °F 60.8 °F 30.06 in Calm   1.0 mph 89 % 0.00 in
06:57 64.0 °F 60.8 °F 30.06 in Calm   1.0 mph 89 % 0.00 in
07:02 64.0 °F 60.8 °F 30.06 in Calm   1.0 mph 89 % 0.00 in
07:07 64.0 °F 60.8 °F 30.06 in Calm   1.0 mph 89 % 0.00 in
07:12 64.0 °F 60.8 °F 30.06 in Calm   1.0 mph 89 % 0.00 in
07:17 64.0 °F 60.8 °F 30.06 in Calm   1.0 mph 89 % 0.00 in
07:22 64.2 °F 61.0 °F 30.06 in Calm   1.0 mph 89 % 0.00 in
07:27 64.4 °F 61.2 °F 30.06 in Calm   1.0 mph 89 % 0.00 in
07:32 64.6 °F 61.0 °F 30.06 in Calm   1.0 mph 88 % 0.00 in
07:37 64.6 °F 61.0 °F 30.06 in Calm   1.0 mph 88 % 0.00 in
07:42 64.6 °F 61.0 °F 30.06 in Calm   1.0 mph 88 % 0.00 in
07:47 64.6 °F 61.3 °F 30.06 in Calm     89 % 0.00 in
07:57 64.6 °F 61.3 °F 30.06 in Calm   1.0 mph 89 % 0.00 in
08:02 64.9 °F 61.7 °F 30.07 in NNW 1.0 mph 1.0 mph 89 % 0.00 in
08:07 65.5 °F 61.9 °F 30.07 in Calm   1.0 mph 88 % 0.00 in
08:12 65.8 °F 61.9 °F 30.07 in Calm   2.0 mph 87 % 0.00 in
08:17 66.4 °F 62.4 °F 30.07 in Calm   2.0 mph 87 % 0.00 in
08:22 66.9 °F 62.6 °F 30.07 in Calm   2.0 mph 86 % 0.00 in
08:27 67.6 °F 62.6 °F 30.07 in Calm   2.0 mph 84 % 0.00 in
08:32 68.4 °F 63.0 °F 30.07 in Calm   2.0 mph 83 % 0.00 in
08:37 69.1 °F 63.3 °F 30.08 in NNE 1.0 mph 2.0 mph 82 % 0.00 in
08:42 69.6 °F 63.5 °F 30.08 in Calm   2.0 mph 81 % 0.00 in
08:47 70.9 °F 64.4 °F 30.08 in NE 2.0 mph 2.0 mph 80 % 0.00 in
08:52 71.8 °F 63.9 °F 30.08 in Calm   2.0 mph 76 % 0.00 in
08:57 72.1 °F 63.9 °F 30.08 in NE 1.0 mph 2.0 mph 75 % 0.00 in
09:02 72.9 °F 64.0 °F 30.09 in Calm   2.0 mph 74 % 0.00 in
09:07 73.4 °F 64.2 °F 30.09 in NNW 3.0 mph 3.0 mph 73 % 0.00 in
09:12 73.8 °F 64.2 °F 30.09 in ENE 2.0 mph 5.0 mph 72 % 0.00 in
09:17 74.1 °F 64.6 °F 30.09 in Calm   5.0 mph 72 % 0.00 in
09:22 74.8 °F 64.0 °F 30.09 in NNE 1.0 mph 5.0 mph 69 % 0.00 in
09:27 75.0 °F 64.2 °F 30.09 in ESE 1.0 mph 5.0 mph 69 % 0.00 in
09:32 74.8 °F 64.4 °F 30.09 in ENE 2.0 mph 5.0 mph 70 % 0.00 in
09:37 75.0 °F 64.2 °F 30.09 in Calm   5.0 mph 69 % 0.00 in
09:42 75.6 °F 65.1 °F 30.09 in Calm   5.0 mph 70 % 0.00 in
09:47 76.6 °F 65.3 °F 30.09 in East 1.0 mph 4.0 mph 68 % 0.00 in
09:52 77.7 °F 65.8 °F 30.09 in Calm   4.0 mph 67 % 0.00 in
09:57 77.9 °F 65.7 °F 30.09 in WNW 1.0 mph 3.0 mph 66 % 0.00 in
10:02 77.9 °F 66.0 °F 30.09 in ENE 1.0 mph 4.0 mph 67 % 0.00 in
10:07 78.3 °F 66.4 °F 30.09 in Calm   4.0 mph 67 % 0.00 in
10:12 79.2 °F 66.4 °F 30.09 in ENE 1.0 mph 4.0 mph 65 % 0.00 in
10:17 79.5 °F 66.2 °F 30.09 in NNW 2.0 mph 3.0 mph 64 % 0.00 in
10:22 79.7 °F 67.3 °F 30.09 in ESE 1.0 mph 3.0 mph 66 % 0.00 in
10:27 80.8 °F 67.5 °F 30.09 in North 1.0 mph 3.0 mph 64 % 0.00 in
10:32 80.8 °F 66.9 °F 30.09 in North 2.0 mph 4.0 mph 63 % 0.00 in
10:37 80.2 °F 66.9 °F 30.09 in East 1.0 mph 5.0 mph 64 % 0.00 in
10:42 80.2 °F 67.5 °F 30.09 in Calm   5.0 mph 65 % 0.00 in
10:47 80.4 °F 67.6 °F 30.09 in NNE 1.0 mph 5.0 mph 65 % 0.00 in
10:52 81.0 °F 68.0 °F 30.09 in SE 3.0 mph 5.0 mph 65 % 0.00 in
10:57 81.1 °F 67.8 °F 30.09 in ENE 1.0 mph 5.0 mph 64 % 0.00 in
10:58 81.1 °F 67.8 °F 30.09 in NW 1.0 mph 5.0 mph 64 % 0.00 in
11:03 81.5 °F 68.2 °F 30.09 in ENE 2.0 mph 5.0 mph 64 % 0.00 in
11:08 82.0 °F 68.7 °F 30.09 in North 1.0 mph 4.0 mph 64 % 0.00 in
11:13 82.2 °F 69.3 °F 30.08 in NNW 3.0 mph 4.0 mph 65 % 0.00 in
11:18 82.8 °F 69.3 °F 30.08 in ESE 2.0 mph 5.0 mph 64 % 0.00 in
11:23 83.7 °F 69.8 °F 30.08 in Calm   5.0 mph 63 % 0.00 in
11:28 84.0 °F 69.6 °F 30.08 in East 2.0 mph 5.0 mph 62 % 0.00 in
11:33 83.8 °F 68.9 °F 30.08 in East 1.0 mph 3.0 mph 61 % 0.00 in
11:38 83.7 °F 69.3 °F 30.08 in NW 1.0 mph 4.0 mph 62 % 0.00 in
11:43 83.7 °F 69.8 °F 30.08 in Calm   5.0 mph 63 % 0.00 in
11:48 83.8 °F 70.9 °F 30.07 in Calm   5.0 mph 65 % 0.00 in
11:53 84.6 °F 70.5 °F 30.07 in ESE 2.0 mph 5.0 mph 63 % 0.00 in
11:58 85.1 °F 70.5 °F 30.07 in SE 2.0 mph 5.0 mph 62 % 0.00 in
12:03 85.5 °F 70.9 °F 30.07 in WNW 1.0 mph 5.0 mph 62 % 0.00 in
12:08 85.6 °F 71.1 °F 30.07 in ENE 4.0 mph 5.0 mph 62 % 0.00 in
12:13 85.3 °F 71.2 °F 30.06 in North 1.0 mph 5.0 mph 63 % 0.00 in
12:18 86.2 °F 72.1 °F 30.06 in NW 2.0 mph 5.0 mph 63 % 0.00 in
12:23 86.4 °F 71.8 °F 30.06 in NNW 2.0 mph 5.0 mph 62 % 0.00 in
12:28 86.4 °F 70.9 °F 30.06 in NW 1.0 mph 4.0 mph 60 % 0.00 in
12:33 86.5 °F 72.0 °F 30.06 in East 2.0 mph 4.0 mph 62 % 0.00 in
12:38 86.5 °F 71.4 °F 30.06 in Calm   4.0 mph 61 % 0.00 in
12:43 86.2 °F 71.1 °F 30.05 in Calm   3.0 mph 61 % 0.00 in
12:48 86.7 °F 71.6 °F 30.05 in NE 3.0 mph 4.0 mph 61 % 0.00 in
12:53 86.9 °F 71.8 °F 30.05 in North 1.0 mph 4.0 mph 61 % 0.00 in
12:58 86.7 °F 72.1 °F 30.05 in NW 1.0 mph 4.0 mph 62 % 0.00 in
13:03 86.7 °F 72.1 °F 30.04 in Calm   4.0 mph 62 % 0.00 in
13:08 87.1 °F 72.9 °F 30.04 in North 2.0 mph 4.0 mph 63 % 0.00 in
13:13 87.6 °F 73.0 °F 30.04 in NW 1.0 mph 4.0 mph 62 % 0.00 in
13:18 87.3 °F 72.1 °F 30.04 in NW 1.0 mph 4.0 mph 61 % 0.00 in
13:23 87.3 °F 72.1 °F 30.04 in Calm   5.0 mph 61 % 0.00 in
13:28 88.0 °F 72.9 °F 30.03 in SSE 1.0 mph 5.0 mph 61 % 0.00 in
13:34 88.5 °F 72.9 °F 30.03 in Calm   5.0 mph 60 % 0.00 in
13:39 89.4 °F 73.8 °F 30.03 in NW 3.0 mph 5.0 mph 60 % 0.00 in
13:44 89.4 °F 73.8 °F 30.02 in Calm   5.0 mph 60 % 0.00 in
13:49 89.8 °F 74.1 °F 30.02 in South 3.0 mph 5.0 mph 60 % 0.00 in
13:54 90.3 °F 73.6 °F 30.01 in SW 5.0 mph 5.0 mph 58 % 0.00 in
13:59 90.1 °F 73.4 °F 30.01 in SE 6.0 mph 6.0 mph 58 % 0.00 in
14:04 89.2 °F 72.5 °F 30.01 in ESE 1.0 mph 7.0 mph 58 % 0.00 in
14:09 89.2 °F 73.0 °F 30.01 in South 2.0 mph 7.0 mph 59 % 0.00 in
14:14 89.4 °F 72.1 °F 30.01 in ENE 1.0 mph 7.0 mph 57 % 0.00 in
14:19 89.1 °F 72.9 °F 30.01 in Calm   5.0 mph 59 % 0.00 in
14:24 88.7 °F 72.0 °F 30.00 in WNW 1.0 mph 4.0 mph 58 % 0.00 in
14:29 88.9 °F 72.7 °F 30.00 in ENE 3.0 mph 8.0 mph 59 % 0.00 in
14:34 89.2 °F 72.5 °F 30.00 in SE 2.0 mph 8.0 mph 58 % 0.00 in
14:39 89.2 °F 72.5 °F 30.00 in SE 5.0 mph 8.0 mph 58 % 0.00 in
14:44 88.9 °F 72.1 °F 29.99 in SSW 4.0 mph 6.0 mph 58 % 0.00 in
14:49 89.2 °F 73.6 °F 29.99 in SSE 2.0 mph 6.0 mph 60 % 0.00 in
14:54 89.6 °F 72.9 °F 29.99 in NW 1.0 mph 6.0 mph 58 % 0.00 in
14:59 90.0 °F 73.2 °F 29.99 in SE 4.0 mph 6.0 mph 58 % 0.00 in
15:04 90.3 °F 72.5 °F 29.99 in South 3.0 mph 14.0 mph 56 % 0.00 in
15:09 90.0 °F 72.7 °F 29.99 in South 3.0 mph 14.0 mph 57 % 0.00 in
15:14 90.3 °F 73.0 °F 29.99 in SSE 1.0 mph 14.0 mph 57 % 0.00 in
15:24 90.9 °F 73.0 °F 29.98 in ESE 6.0 mph 6.0 mph 56 % 0.00 in
15:29 90.5 °F 72.7 °F 29.98 in ESE 5.0 mph 6.0 mph 56 % 0.00 in
15:34 90.1 °F 71.8 °F 29.98 in ESE 3.0 mph 7.0 mph 55 % 0.00 in
15:39 90.1 °F 72.3 °F 29.98 in SSW 1.0 mph 7.0 mph 56 % 0.00 in
15:44 90.7 °F 72.9 °F 29.98 in WSW 1.0 mph 7.0 mph 56 % 0.00 in
15:49 90.9 °F 72.5 °F 29.98 in Calm   5.0 mph 55 % 0.00 in
15:54 90.9 °F 72.5 °F 29.98 in SSW 2.0 mph 5.0 mph 55 % 0.00 in
15:59 90.5 °F 72.1 °F 29.98 in ESE 4.0 mph 6.0 mph 55 % 0.00 in
16:04 90.1 °F 71.8 °F 29.98 in SSW 3.0 mph 6.0 mph 55 % 0.00 in
16:09 90.3 °F 72.0 °F 29.98 in SSE 1.0 mph 8.0 mph 55 % 0.00 in
16:14 90.3 °F 71.4 °F 29.97 in NE 1.0 mph 8.0 mph 54 % 0.00 in
16:19 90.3 °F 72.5 °F 29.97 in Calm   8.0 mph 56 % 0.00 in
16:24 90.7 °F 72.3 °F 29.97 in SW 1.0 mph 5.0 mph 55 % 0.00 in
16:29 91.0 °F 72.7 °F 29.97 in West 1.0 mph 4.0 mph 55 % 0.00 in
16:34 91.0 °F 72.1 °F 29.97 in SE 2.0 mph 3.0 mph 54 % 0.00 in
16:39 91.2 °F 72.9 °F 29.97 in SSE 3.0 mph 3.0 mph 55 % 0.00 in
16:44 90.9 °F 73.0 °F 29.97 in ESE 3.0 mph 4.0 mph 56 % 0.00 in
16:49 90.3 °F 72.0 °F 29.97 in Calm   5.0 mph 55 % 0.00 in
16:54 90.5 °F 72.7 °F 29.97 in East 2.0 mph 5.0 mph 56 % 0.00 in
16:59 90.5 °F 72.7 °F 29.97 in ENE 2.0 mph 5.0 mph 56 % 0.00 in
17:04 90.1 °F 72.3 °F 29.97 in East 2.0 mph 4.0 mph 56 % 0.00 in
17:09 90.1 °F 72.3 °F 29.96 in ENE 3.0 mph 4.0 mph 56 % 0.00 in
17:14 89.8 °F 72.5 °F 29.96 in ESE 1.0 mph 4.0 mph 57 % 0.00 in
17:19 89.8 °F 72.5 °F 29.96 in ESE 4.0 mph 4.0 mph 57 % 0.00 in
17:24 89.2 °F 71.4 °F 29.96 in South 2.0 mph 6.0 mph 56 % 0.00 in
17:25 89.2 °F 72.0 °F 29.96 in South 1.0 mph 6.0 mph 57 % 0.00 in
17:35 89.2 °F 72.0 °F 29.97 in Calm   6.0 mph 57 % 0.00 in
17:40 89.2 °F 72.0 °F 29.97 in SE 1.0 mph 5.0 mph 57 % 0.00 in
17:45 89.1 °F 71.8 °F 29.97 in Calm   4.0 mph 57 % 0.00 in
17:50 88.9 °F 72.1 °F 29.97 in Calm   4.0 mph 58 % 0.00 in
17:55 88.5 °F 72.3 °F 29.97 in Calm   4.0 mph 59 % 0.00 in
18:00 88.2 °F 72.0 °F 29.97 in Calm   2.0 mph 59 % 0.00 in
18:05 88.0 °F 72.3 °F 29.97 in Calm   2.0 mph 60 % 0.00 in
18:10 87.6 °F 72.0 °F 29.97 in East 1.0 mph 2.0 mph 60 % 0.00 in
18:15 87.4 °F 72.3 °F 29.97 in Calm   2.0 mph 61 % 0.00 in
18:20 87.4 °F 72.3 °F 29.97 in Calm   2.0 mph 61 % 0.00 in
18:25 87.1 °F 72.5 °F 29.97 in ENE 2.0 mph 2.0 mph 62 % 0.00 in
18:30 86.7 °F 72.1 °F 29.97 in Calm   2.0 mph 62 % 0.00 in
18:35 86.5 °F 72.5 °F 29.97 in Calm   2.0 mph 63 % 0.00 in
18:40 86.2 °F 72.5 °F 29.97 in Calm   2.0 mph 64 % 0.00 in
18:45 85.8 °F 72.7 °F 29.97 in Calm   1.0 mph 65 % 0.00 in
18:50 85.5 °F 72.3 °F 29.98 in Calm   1.0 mph 65 % 0.00 in
18:55 85.3 °F 72.7 °F 29.97 in Calm   1.0 mph 66 % 0.00 in
19:00 84.9 °F 72.3 °F 29.98 in East 1.0 mph 2.0 mph 66 % 0.00 in
19:05 84.7 °F 72.5 °F 29.98 in ENE 2.0 mph 2.0 mph 67 % 0.00 in
19:10 84.6 °F 72.3 °F 29.98 in Calm   2.0 mph 67 % 0.00 in
19:15 84.4 °F 72.7 °F 29.98 in Calm   2.0 mph 68 % 0.00 in
19:20 84.0 °F 72.3 °F 29.98 in Calm   2.0 mph 68 % 0.00 in
19:25 83.7 °F 72.3 °F 29.98 in Calm   1.0 mph 69 % 0.00 in
19:30 83.5 °F 72.3 °F 29.98 in Calm   2.0 mph 69 % 0.00 in
19:35 83.3 °F 72.5 °F 29.98 in Calm   2.0 mph 70 % 0.00 in
19:40 82.9 °F 72.1 °F 29.98 in Calm   2.0 mph 70 % 0.00 in
19:45 82.8 °F 72.3 °F 29.99 in Calm   1.0 mph 71 % 0.00 in
19:50 82.6 °F 72.7 °F 29.99 in Calm   1.0 mph 72 % 0.00 in
19:55 82.2 °F 72.3 °F 29.99 in Calm   1.0 mph 72 % 0.00 in
20:00 82.0 °F 72.5 °F 29.99 in Calm   1.0 mph 73 % 0.00 in
20:05 81.9 °F 72.7 °F 29.99 in Calm   1.0 mph 74 % 0.00 in
20:10 81.7 °F 72.5 °F 29.99 in Calm   1.0 mph 74 % 0.00 in
20:16 81.7 °F 72.5 °F 29.99 in Calm   1.0 mph 74 % 0.00 in
20:20 81.3 °F 72.7 °F 29.99 in Calm   1.0 mph 75 % 0.00 in
20:25 81.3 °F 72.7 °F 29.99 in Calm   1.0 mph 75 % 0.00 in
20:30 81.1 °F 72.5 °F 29.99 in Calm   2.0 mph 75 % 0.00 in
20:35 81.3 °F 72.7 °F 29.99 in Calm   2.0 mph 75 % 0.00 in
20:40 81.3 °F 73.0 °F 30.00 in Calm   2.0 mph 76 % 0.00 in
20:45 81.3 °F 73.0 °F 30.00 in Calm   1.0 mph 76 % 0.00 in
20:50 81.3 °F 73.0 °F 30.00 in Calm   1.0 mph 76 % 0.00 in
20:55 81.3 °F 73.0 °F 30.00 in Calm   1.0 mph 76 % 0.00 in
21:00 81.1 °F 72.9 °F 30.00 in Calm   1.0 mph 76 % 0.00 in
21:05 81.1 °F 73.2 °F 30.01 in Calm   1.0 mph 77 % 0.00 in
21:10 81.1 °F 73.2 °F 30.01 in Calm   2.0 mph 77 % 0.00 in
21:15 81.1 °F 73.2 °F 30.01 in Calm   2.0 mph 77 % 0.00 in
21:20 81.0 °F 73.0 °F 30.01 in Calm   2.0 mph 77 % 0.00 in
21:25 81.0 °F 73.0 °F 30.01 in Calm   2.0 mph 77 % 0.00 in
21:30 80.8 °F 73.2 °F 30.01 in Calm   2.0 mph 78 % 0.00 in
21:35 80.8 °F 73.2 °F 30.01 in Calm   2.0 mph 78 % 0.00 in
21:37 80.6 °F 73.0 °F 30.01 in Calm   2.0 mph 78 % 0.00 in
21:42 80.4 °F 73.2 °F 30.02 in Calm   2.0 mph 79 % 0.00 in
21:47 80.2 °F 73.0 °F 30.02 in Calm   1.0 mph 79 % 0.00 in
21:52 80.2 °F 73.0 °F 30.02 in Calm   1.0 mph 79 % 0.00 in
21:57 80.1 °F 73.4 °F 30.02 in Calm   1.0 mph 80 % 0.00 in
22:02 79.9 °F 73.2 °F 30.02 in Calm   1.0 mph 80 % 0.00 in
22:07 79.7 °F 73.4 °F 30.03 in Calm   1.0 mph 81 % 0.00 in
22:12 79.5 °F 73.2 °F 30.03 in Calm   1.0 mph 81 % 0.00 in
22:17 79.3 °F 73.0 °F 30.03 in Calm   1.0 mph 81 % 0.00 in
22:22 79.2 °F 72.9 °F 30.03 in Calm   1.0 mph 81 % 0.00 in
22:27 79.2 °F 73.2 °F 30.03 in Calm   1.0 mph 82 % 0.00 in
22:32 79.0 °F 73.0 °F 30.03 in Calm   1.0 mph 82 % 0.00 in
22:37 78.6 °F 72.7 °F 30.03 in Calm   1.0 mph 82 % 0.00 in
22:42 78.6 °F 73.0 °F 30.03 in Calm   3.0 mph 83 % 0.00 in
22:47 78.6 °F 73.0 °F 30.03 in ESE 1.0 mph 3.0 mph 83 % 0.00 in
22:52 78.6 °F 73.0 °F 30.03 in Calm   3.0 mph 83 % 0.00 in
22:57 78.8 °F 73.2 °F 30.03 in ESE 1.0 mph 2.0 mph 83 % 0.00 in
23:02 78.8 °F 73.2 °F 30.03 in Calm   3.0 mph 83 % 0.00 in
23:07 78.6 °F 73.0 °F 30.04 in SSW 2.0 mph 3.0 mph 83 % 0.00 in
23:12 78.3 °F 73.0 °F 30.04 in Calm   3.0 mph 84 % 0.00 in
23:17 78.3 °F 73.0 °F 30.03 in SSE 1.0 mph 2.0 mph 84 % 0.00 in
23:22 78.1 °F 73.2 °F 30.03 in Calm   2.0 mph 85 % 0.00 in
23:27 77.7 °F 72.9 °F 30.04 in Calm   2.0 mph 85 % 0.00 in
23:32 77.5 °F 72.7 °F 30.03 in Calm   1.0 mph 85 % 0.00 in
23:37 77.2 °F 72.7 °F 30.03 in Calm     86 % 0.00 in
23:42 77.0 °F 72.9 °F 30.03 in Calm     87 % 0.00 in
23:47 76.8 °F 73.0 °F 30.03 in Calm   1.0 mph 88 % 0.00 in
23:52 76.6 °F 72.9 °F 30.03 in Calm   1.0 mph 88 % 0.00 in
23:57 76.5 °F 72.7 °F 30.03 in Calm   1.0 mph 88 % 0.00 in
Spring, Texas: Villages of Bridgestone
Compliments of Weather Underground - 2.75 mb

Script developed by  Jim McMurry - jmcmurry@mwt.net Adapted for the template by  Wim van der Kuil - Leuven-Template.eu

You find our weather info also at:

UK Metoffice

WeatherCloud

Weather Underground

Mid-South Weather Network

AWEKAS

Citizen Weather Observer Program (CWOP)

HAMweather, WeatherForYou, PWS Weather

Equipment we use:

Weather-station
Davis Vantage Vue

Weather-program
Meteohub

Weather-server
Debian 7.9 x86 (Guest)

Provider
DreamHost

Davis Vantage Vue

Meteohub

Debian 7.9 x86 (Guest)

DreamHost